sensor_id;sensor_type;location;lat;lon;timestamp;P1;durP1;ratioP1;P2;durP2;ratioP2
63965;SDS011;50151;52.030;5.350;2023-06-22T00:01:19;6.97;;;4.20;;
63965;SDS011;50151;52.030;5.350;2023-06-22T00:03:47;6.75;;;4.10;;
63965;SDS011;50151;52.030;5.350;2023-06-22T00:06:14;8.65;;;4.57;;
63965;SDS011;50151;52.030;5.350;2023-06-22T00:08:41;5.75;;;3.92;;
63965;SDS011;50151;52.030;5.350;2023-06-22T00:11:08;8.60;;;4.10;;
63965;SDS011;50151;52.030;5.350;2023-06-22T00:13:35;6.75;;;4.50;;
63965;SDS011;50151;52.030;5.350;2023-06-22T00:16:01;8.65;;;4.50;;
63965;SDS011;50151;52.030;5.350;2023-06-22T00:18:28;5.68;;;4.20;;
63965;SDS011;50151;52.030;5.350;2023-06-22T00:20:56;7.80;;;4.55;;
63965;SDS011;50151;52.030;5.350;2023-06-22T00:23:24;5.90;;;4.82;;
63965;SDS011;50151;52.030;5.350;2023-06-22T00:25:51;7.75;;;4.88;;
63965;SDS011;50151;52.030;5.350;2023-06-22T00:28:18;7.85;;;4.43;;
63965;SDS011;50151;52.030;5.350;2023-06-22T00:30:45;7.25;;;4.22;;
63965;SDS011;50151;52.030;5.350;2023-06-22T00:33:12;7.38;;;4.50;;
63965;SDS011;50151;52.030;5.350;2023-06-22T00:35:39;6.50;;;4.10;;
63965;SDS011;50151;52.030;5.350;2023-06-22T00:38:07;7.93;;;4.43;;
63965;SDS011;50151;52.030;5.350;2023-06-22T00:40:34;9.55;;;4.93;;
63965;SDS011;50151;52.030;5.350;2023-06-22T00:43:02;6.55;;;4.50;;
63965;SDS011;50151;52.030;5.350;2023-06-22T00:45:29;6.82;;;4.68;;
63965;SDS011;50151;52.030;5.350;2023-06-22T00:47:56;9.90;;;4.75;;
63965;SDS011;50151;52.030;5.350;2023-06-22T00:50:25;5.60;;;4.18;;
63965;SDS011;50151;52.030;5.350;2023-06-22T00:52:55;7.13;;;4.30;;
63965;SDS011;50151;52.030;5.350;2023-06-22T00:55:24;7.20;;;4.78;;
63965;SDS011;50151;52.030;5.350;2023-06-22T00:57:54;8.20;;;4.53;;
63965;SDS011;50151;52.030;5.350;2023-06-22T01:00:25;6.22;;;4.80;;
63965;SDS011;50151;52.030;5.350;2023-06-22T01:02:52;10.63;;;5.03;;
63965;SDS011;50151;52.030;5.350;2023-06-22T01:05:20;6.57;;;4.28;;
63965;SDS011;50151;52.030;5.350;2023-06-22T01:07:54;8.70;;;4.45;;
63965;SDS011;50151;52.030;5.350;2023-06-22T01:10:39;6.70;;;4.65;;
63965;SDS011;50151;52.030;5.350;2023-06-22T01:15:51;6.32;;;4.00;;
63965;SDS011;50151;52.030;5.350;2023-06-22T01:18:22;7.20;;;4.60;;
63965;SDS011;50151;52.030;5.350;2023-06-22T01:20:53;6.03;;;4.45;;
63965;SDS011;50151;52.030;5.350;2023-06-22T01:23:33;6.05;;;4.50;;
63965;SDS011;50151;52.030;5.350;2023-06-22T01:26:32;7.07;;;4.78;;
63965;SDS011;50151;52.030;5.350;2023-06-22T01:29:27;9.30;;;4.70;;
63965;SDS011;50151;52.030;5.350;2023-06-22T01:31:56;8.18;;;5.38;;
63965;SDS011;50151;52.030;5.350;2023-06-22T01:34:25;10.73;;;5.30;;
63965;SDS011;50151;52.030;5.350;2023-06-22T01:36:52;14.20;;;5.30;;
63965;SDS011;50151;52.030;5.350;2023-06-22T01:39:20;7.55;;;4.82;;
63965;SDS011;50151;52.030;5.350;2023-06-22T01:41:48;7.75;;;5.47;;
63965;SDS011;50151;52.030;5.350;2023-06-22T01:44:15;8.88;;;5.75;;
63965;SDS011;50151;52.030;5.350;2023-06-22T01:46:42;7.18;;;5.22;;
63965;SDS011;50151;52.030;5.350;2023-06-22T01:49:10;8.70;;;5.10;;
63965;SDS011;50151;52.030;5.350;2023-06-22T01:51:37;8.65;;;5.25;;
63965;SDS011;50151;52.030;5.350;2023-06-22T01:54:05;7.43;;;5.05;;
63965;SDS011;50151;52.030;5.350;2023-06-22T01:56:32;7.38;;;5.45;;
63965;SDS011;50151;52.030;5.350;2023-06-22T01:59:02;6.88;;;4.93;;
63965;SDS011;50151;52.030;5.350;2023-06-22T02:01:44;8.65;;;5.97;;
63965;SDS011;50151;52.030;5.350;2023-06-22T02:04:20;10.20;;;5.50;;
63965;SDS011;50151;52.030;5.350;2023-06-22T02:06:51;7.93;;;5.30;;
63965;SDS011;50151;52.030;5.350;2023-06-22T02:09:22;7.97;;;5.15;;
63965;SDS011;50151;52.030;5.350;2023-06-22T02:11:52;7.03;;;5.18;;
63965;SDS011;50151;52.030;5.350;2023-06-22T02:14:22;10.65;;;5.88;;
63965;SDS011;50151;52.030;5.350;2023-06-22T02:16:53;10.43;;;5.45;;
63965;SDS011;50151;52.030;5.350;2023-06-22T02:19:23;7.35;;;4.80;;
63965;SDS011;50151;52.030;5.350;2023-06-22T02:21:51;8.52;;;5.90;;
63965;SDS011;50151;52.030;5.350;2023-06-22T02:24:17;8.88;;;5.53;;
63965;SDS011;50151;52.030;5.350;2023-06-22T02:26:44;9.20;;;6.32;;
63965;SDS011;50151;52.030;5.350;2023-06-22T02:29:12;8.27;;;5.97;;
63965;SDS011;50151;52.030;5.350;2023-06-22T02:31:38;7.93;;;5.97;;
63965;SDS011;50151;52.030;5.350;2023-06-22T02:34:05;9.25;;;5.72;;
63965;SDS011;50151;52.030;5.350;2023-06-22T02:36:32;10.93;;;6.07;;
63965;SDS011;50151;52.030;5.350;2023-06-22T02:38:59;12.90;;;7.15;;
63965;SDS011;50151;52.030;5.350;2023-06-22T02:41:27;11.32;;;6.38;;
63965;SDS011;50151;52.030;5.350;2023-06-22T02:43:54;12.23;;;6.45;;
63965;SDS011;50151;52.030;5.350;2023-06-22T02:46:21;10.15;;;6.35;;
63965;SDS011;50151;52.030;5.350;2023-06-22T02:48:48;9.80;;;6.20;;
63965;SDS011;50151;52.030;5.350;2023-06-22T02:51:14;10.40;;;6.63;;
63965;SDS011;50151;52.030;5.350;2023-06-22T02:53:41;16.55;;;6.40;;
63965;SDS011;50151;52.030;5.350;2023-06-22T02:56:11;7.47;;;5.93;;
63965;SDS011;50151;52.030;5.350;2023-06-22T02:58:39;10.90;;;6.22;;
63965;SDS011;50151;52.030;5.350;2023-06-22T03:01:06;12.38;;;6.40;;
63965;SDS011;50151;52.030;5.350;2023-06-22T03:03:32;8.38;;;6.43;;
63965;SDS011;50151;52.030;5.350;2023-06-22T03:05:59;9.70;;;6.57;;
63965;SDS011;50151;52.030;5.350;2023-06-22T03:08:29;10.68;;;6.13;;
63965;SDS011;50151;52.030;5.350;2023-06-22T03:10:56;10.05;;;6.25;;
63965;SDS011;50151;52.030;5.350;2023-06-22T03:13:23;8.10;;;6.15;;
63965;SDS011;50151;52.030;5.350;2023-06-22T03:15:50;8.18;;;6.38;;
63965;SDS011;50151;52.030;5.350;2023-06-22T03:18:17;12.13;;;6.32;;
63965;SDS011;50151;52.030;5.350;2023-06-22T03:20:43;10.43;;;6.32;;
63965;SDS011;50151;52.030;5.350;2023-06-22T03:23:10;9.60;;;6.50;;
63965;SDS011;50151;52.030;5.350;2023-06-22T03:25:37;9.15;;;6.70;;
63965;SDS011;50151;52.030;5.350;2023-06-22T03:28:03;9.60;;;6.47;;
63965;SDS011;50151;52.030;5.350;2023-06-22T03:30:30;10.38;;;6.65;;
63965;SDS011;50151;52.030;5.350;2023-06-22T03:32:57;9.60;;;6.70;;
63965;SDS011;50151;52.030;5.350;2023-06-22T03:35:24;8.80;;;6.13;;
63965;SDS011;50151;52.030;5.350;2023-06-22T03:37:51;13.63;;;6.95;;
63965;SDS011;50151;52.030;5.350;2023-06-22T03:40:17;8.00;;;5.97;;
63965;SDS011;50151;52.030;5.350;2023-06-22T03:42:45;10.85;;;6.95;;
63965;SDS011;50151;52.030;5.350;2023-06-22T03:45:12;9.88;;;6.85;;
63965;SDS011;50151;52.030;5.350;2023-06-22T03:47:38;12.07;;;7.00;;
63965;SDS011;50151;52.030;5.350;2023-06-22T03:50:06;8.85;;;6.60;;
63965;SDS011;50151;52.030;5.350;2023-06-22T03:52:33;13.02;;;6.90;;
63965;SDS011;50151;52.030;5.350;2023-06-22T03:54:59;9.85;;;6.97;;
63965;SDS011;50151;52.030;5.350;2023-06-22T03:57:26;12.65;;;7.50;;
63965;SDS011;50151;52.030;5.350;2023-06-22T03:59:54;13.75;;;7.50;;
63965;SDS011;50151;52.030;5.350;2023-06-22T04:02:22;10.30;;;7.00;;
63965;SDS011;50151;52.030;5.350;2023-06-22T04:04:49;10.07;;;7.10;;
63965;SDS011;50151;52.030;5.350;2023-06-22T04:07:16;10.77;;;7.05;;
63965;SDS011;50151;52.030;5.350;2023-06-22T04:09:44;10.25;;;7.13;;
63965;SDS011;50151;52.030;5.350;2023-06-22T04:12:10;13.88;;;7.60;;
63965;SDS011;50151;52.030;5.350;2023-06-22T04:14:37;14.60;;;8.10;;
63965;SDS011;50151;52.030;5.350;2023-06-22T04:17:04;11.18;;;7.70;;
63965;SDS011;50151;52.030;5.350;2023-06-22T04:19:31;19.35;;;7.88;;
63965;SDS011;50151;52.030;5.350;2023-06-22T04:21:57;13.52;;;7.47;;
63965;SDS011;50151;52.030;5.350;2023-06-22T04:24:24;10.65;;;7.30;;
63965;SDS011;50151;52.030;5.350;2023-06-22T04:26:51;12.98;;;7.90;;
63965;SDS011;50151;52.030;5.350;2023-06-22T04:29:21;12.57;;;7.90;;
63965;SDS011;50151;52.030;5.350;2023-06-22T04:31:54;11.85;;;8.02;;
63965;SDS011;50151;52.030;5.350;2023-06-22T04:34:31;11.82;;;7.75;;
63965;SDS011;50151;52.030;5.350;2023-06-22T04:36:58;12.32;;;8.23;;
63965;SDS011;50151;52.030;5.350;2023-06-22T04:39:26;13.13;;;8.52;;
63965;SDS011;50151;52.030;5.350;2023-06-22T04:41:53;11.45;;;7.80;;
63965;SDS011;50151;52.030;5.350;2023-06-22T04:44:21;10.68;;;8.02;;
63965;SDS011;50151;52.030;5.350;2023-06-22T04:46:58;12.45;;;8.55;;
63965;SDS011;50151;52.030;5.350;2023-06-22T04:49:29;12.48;;;8.82;;
63965;SDS011;50151;52.030;5.350;2023-06-22T04:52:02;15.48;;;9.07;;
63965;SDS011;50151;52.030;5.350;2023-06-22T04:54:30;13.88;;;9.60;;
63965;SDS011;50151;52.030;5.350;2023-06-22T04:57:00;15.70;;;9.02;;
63965;SDS011;50151;52.030;5.350;2023-06-22T04:59:28;15.15;;;9.52;;
63965;SDS011;50151;52.030;5.350;2023-06-22T05:01:56;15.00;;;9.75;;
63965;SDS011;50151;52.030;5.350;2023-06-22T05:04:24;13.25;;;9.35;;
63965;SDS011;50151;52.030;5.350;2023-06-22T05:06:54;14.40;;;9.15;;
63965;SDS011;50151;52.030;5.350;2023-06-22T05:09:21;18.40;;;10.52;;
63965;SDS011;50151;52.030;5.350;2023-06-22T05:11:48;19.65;;;9.98;;
63965;SDS011;50151;52.030;5.350;2023-06-22T05:14:15;19.30;;;10.27;;
63965;SDS011;50151;52.030;5.350;2023-06-22T05:16:42;19.98;;;9.90;;
63965;SDS011;50151;52.030;5.350;2023-06-22T05:19:09;17.52;;;10.68;;
63965;SDS011;50151;52.030;5.350;2023-06-22T05:21:36;21.38;;;11.15;;
63965;SDS011;50151;52.030;5.350;2023-06-22T05:24:03;19.80;;;11.80;;
63965;SDS011;50151;52.030;5.350;2023-06-22T05:26:31;20.02;;;12.90;;
63965;SDS011;50151;52.030;5.350;2023-06-22T05:28:59;19.02;;;12.45;;
63965;SDS011;50151;52.030;5.350;2023-06-22T05:31:27;20.42;;;14.02;;
63965;SDS011;50151;52.030;5.350;2023-06-22T05:33:54;26.33;;;13.38;;
63965;SDS011;50151;52.030;5.350;2023-06-22T05:36:22;24.05;;;14.27;;
63965;SDS011;50151;52.030;5.350;2023-06-22T05:38:52;21.33;;;13.73;;
63965;SDS011;50151;52.030;5.350;2023-06-22T05:41:19;21.05;;;13.43;;
63965;SDS011;50151;52.030;5.350;2023-06-22T05:43:46;21.23;;;14.05;;
63965;SDS011;50151;52.030;5.350;2023-06-22T05:46:13;21.65;;;14.27;;
63965;SDS011;50151;52.030;5.350;2023-06-22T05:48:40;29.30;;;13.35;;
63965;SDS011;50151;52.030;5.350;2023-06-22T05:51:06;23.42;;;14.20;;
63965;SDS011;50151;52.030;5.350;2023-06-22T05:53:33;24.30;;;13.75;;
63965;SDS011;50151;52.030;5.350;2023-06-22T05:56:00;24.48;;;13.60;;
63965;SDS011;50151;52.030;5.350;2023-06-22T05:58:27;19.58;;;12.73;;
63965;SDS011;50151;52.030;5.350;2023-06-22T06:00:53;18.67;;;13.60;;
63965;SDS011;50151;52.030;5.350;2023-06-22T06:03:20;20.17;;;13.32;;
63965;SDS011;50151;52.030;5.350;2023-06-22T06:05:47;23.30;;;13.52;;
63965;SDS011;50151;52.030;5.350;2023-06-22T06:08:14;22.88;;;13.75;;
63965;SDS011;50151;52.030;5.350;2023-06-22T06:10:41;19.73;;;13.55;;
63965;SDS011;50151;52.030;5.350;2023-06-22T06:13:07;21.58;;;12.85;;
63965;SDS011;50151;52.030;5.350;2023-06-22T06:15:34;17.77;;;12.75;;
63965;SDS011;50151;52.030;5.350;2023-06-22T06:18:01;20.85;;;12.98;;
63965;SDS011;50151;52.030;5.350;2023-06-22T06:20:31;27.52;;;12.98;;
63965;SDS011;50151;52.030;5.350;2023-06-22T06:22:59;21.17;;;13.77;;
63965;SDS011;50151;52.030;5.350;2023-06-22T06:25:26;26.95;;;13.93;;
63965;SDS011;50151;52.030;5.350;2023-06-22T06:27:53;19.67;;;13.55;;
63965;SDS011;50151;52.030;5.350;2023-06-22T06:30:21;24.98;;;13.95;;
63965;SDS011;50151;52.030;5.350;2023-06-22T06:32:48;20.98;;;13.52;;
63965;SDS011;50151;52.030;5.350;2023-06-22T06:35:16;21.10;;;13.52;;
63965;SDS011;50151;52.030;5.350;2023-06-22T06:37:44;21.70;;;15.02;;
63965;SDS011;50151;52.030;5.350;2023-06-22T06:40:13;19.90;;;14.43;;
63965;SDS011;50151;52.030;5.350;2023-06-22T06:42:42;24.10;;;15.23;;
63965;SDS011;50151;52.030;5.350;2023-06-22T06:45:11;22.65;;;13.75;;
63965;SDS011;50151;52.030;5.350;2023-06-22T06:47:42;19.92;;;13.50;;
63965;SDS011;50151;52.030;5.350;2023-06-22T06:50:10;26.33;;;14.50;;
63965;SDS011;50151;52.030;5.350;2023-06-22T06:52:37;21.38;;;14.43;;
63965;SDS011;50151;52.030;5.350;2023-06-22T06:55:05;19.63;;;13.63;;
63965;SDS011;50151;52.030;5.350;2023-06-22T06:57:35;25.50;;;14.82;;
63965;SDS011;50151;52.030;5.350;2023-06-22T07:00:07;23.20;;;14.68;;
63965;SDS011;50151;52.030;5.350;2023-06-22T07:02:38;23.15;;;14.48;;
63965;SDS011;50151;52.030;5.350;2023-06-22T07:05:09;22.70;;;14.38;;
63965;SDS011;50151;52.030;5.350;2023-06-22T07:07:37;22.17;;;14.40;;
63965;SDS011;50151;52.030;5.350;2023-06-22T07:10:05;21.42;;;14.20;;
63965;SDS011;50151;52.030;5.350;2023-06-22T07:12:33;21.48;;;15.00;;
63965;SDS011;50151;52.030;5.350;2023-06-22T07:15:04;24.70;;;14.57;;
63965;SDS011;50151;52.030;5.350;2023-06-22T07:17:36;24.33;;;14.30;;
63965;SDS011;50151;52.030;5.350;2023-06-22T07:20:03;24.85;;;14.48;;
63965;SDS011;50151;52.030;5.350;2023-06-22T07:22:36;19.73;;;14.45;;
63965;SDS011;50151;52.030;5.350;2023-06-22T07:25:08;19.88;;;14.25;;
63965;SDS011;50151;52.030;5.350;2023-06-22T07:27:38;23.17;;;13.90;;
63965;SDS011;50151;52.030;5.350;2023-06-22T07:30:11;20.92;;;13.07;;
63965;SDS011;50151;52.030;5.350;2023-06-22T07:32:39;20.50;;;13.45;;
63965;SDS011;50151;52.030;5.350;2023-06-22T07:35:07;17.67;;;13.27;;
63965;SDS011;50151;52.030;5.350;2023-06-22T07:37:34;19.23;;;13.30;;
63965;SDS011;50151;52.030;5.350;2023-06-22T07:40:01;19.42;;;13.23;;
63965;SDS011;50151;52.030;5.350;2023-06-22T07:42:32;16.63;;;11.70;;
63965;SDS011;50151;52.030;5.350;2023-06-22T07:44:59;21.33;;;12.55;;
63965;SDS011;50151;52.030;5.350;2023-06-22T07:47:26;16.20;;;11.90;;
63965;SDS011;50151;52.030;5.350;2023-06-22T07:49:55;19.75;;;11.68;;
63965;SDS011;50151;52.030;5.350;2023-06-22T07:52:24;24.48;;;12.05;;
63965;SDS011;50151;52.030;5.350;2023-06-22T07:54:51;16.08;;;11.30;;
63965;SDS011;50151;52.030;5.350;2023-06-22T07:57:18;19.52;;;11.82;;
63965;SDS011;50151;52.030;5.350;2023-06-22T07:59:47;17.92;;;11.15;;
63965;SDS011;50151;52.030;5.350;2023-06-22T08:02:14;16.90;;;11.40;;
63965;SDS011;50151;52.030;5.350;2023-06-22T08:04:41;16.85;;;11.18;;
63965;SDS011;50151;52.030;5.350;2023-06-22T08:07:08;16.25;;;11.38;;
63965;SDS011;50151;52.030;5.350;2023-06-22T08:09:35;18.50;;;11.75;;
63965;SDS011;50151;52.030;5.350;2023-06-22T08:12:03;17.27;;;10.68;;
63965;SDS011;50151;52.030;5.350;2023-06-22T08:14:30;21.52;;;11.50;;
63965;SDS011;50151;52.030;5.350;2023-06-22T08:16:57;14.52;;;10.73;;
63965;SDS011;50151;52.030;5.350;2023-06-22T08:19:24;15.85;;;10.63;;
63965;SDS011;50151;52.030;5.350;2023-06-22T08:21:50;13.73;;;10.50;;
63965;SDS011;50151;52.030;5.350;2023-06-22T08:24:17;16.52;;;10.13;;
63965;SDS011;50151;52.030;5.350;2023-06-22T08:26:44;15.75;;;9.98;;
63965;SDS011;50151;52.030;5.350;2023-06-22T08:29:11;15.30;;;9.43;;
63965;SDS011;50151;52.030;5.350;2023-06-22T08:31:37;17.10;;;10.88;;
63965;SDS011;50151;52.030;5.350;2023-06-22T08:34:05;14.13;;;10.23;;
63965;SDS011;50151;52.030;5.350;2023-06-22T08:36:31;13.10;;;9.65;;
63965;SDS011;50151;52.030;5.350;2023-06-22T08:39:01;14.40;;;8.90;;
63965;SDS011;50151;52.030;5.350;2023-06-22T08:41:29;11.00;;;8.63;;
63965;SDS011;50151;52.030;5.350;2023-06-22T08:43:56;15.10;;;9.43;;
63965;SDS011;50151;52.030;5.350;2023-06-22T08:46:23;13.98;;;9.85;;
63965;SDS011;50151;52.030;5.350;2023-06-22T08:48:56;11.95;;;9.30;;
63965;SDS011;50151;52.030;5.350;2023-06-22T08:51:24;14.70;;;9.10;;
63965;SDS011;50151;52.030;5.350;2023-06-22T08:53:50;17.90;;;9.00;;
63965;SDS011;50151;52.030;5.350;2023-06-22T08:56:17;14.90;;;8.68;;
63965;SDS011;50151;52.030;5.350;2023-06-22T08:58:44;13.77;;;8.20;;
63965;SDS011;50151;52.030;5.350;2023-06-22T09:01:11;15.85;;;9.50;;
63965;SDS011;50151;52.030;5.350;2023-06-22T09:03:38;12.98;;;8.63;;
63965;SDS011;50151;52.030;5.350;2023-06-22T09:06:05;12.25;;;7.82;;
63965;SDS011;50151;52.030;5.350;2023-06-22T09:08:32;11.60;;;7.75;;
63965;SDS011;50151;52.030;5.350;2023-06-22T09:10:59;11.18;;;7.50;;
63965;SDS011;50151;52.030;5.350;2023-06-22T09:13:25;16.05;;;6.72;;
63965;SDS011;50151;52.030;5.350;2023-06-22T09:15:52;12.43;;;7.07;;
63965;SDS011;50151;52.030;5.350;2023-06-22T09:18:19;13.82;;;6.95;;
63965;SDS011;50151;52.030;5.350;2023-06-22T09:20:46;12.18;;;7.00;;
63965;SDS011;50151;52.030;5.350;2023-06-22T09:23:12;13.13;;;7.00;;
63965;SDS011;50151;52.030;5.350;2023-06-22T09:25:39;10.63;;;6.80;;
63965;SDS011;50151;52.030;5.350;2023-06-22T09:28:06;10.55;;;6.57;;
63965;SDS011;50151;52.030;5.350;2023-06-22T09:30:33;10.07;;;6.15;;
63965;SDS011;50151;52.030;5.350;2023-06-22T09:33:00;9.05;;;6.18;;
63965;SDS011;50151;52.030;5.350;2023-06-22T09:35:27;8.65;;;5.72;;
63965;SDS011;50151;52.030;5.350;2023-06-22T09:37:54;9.27;;;6.25;;
63965;SDS011;50151;52.030;5.350;2023-06-22T09:40:21;11.13;;;7.00;;
63965;SDS011;50151;52.030;5.350;2023-06-22T09:42:48;13.77;;;6.45;;
63965;SDS011;50151;52.030;5.350;2023-06-22T09:45:15;9.63;;;6.20;;
63965;SDS011;50151;52.030;5.350;2023-06-22T09:47:42;9.27;;;6.47;;
63965;SDS011;50151;52.030;5.350;2023-06-22T09:50:09;10.32;;;6.20;;
63965;SDS011;50151;52.030;5.350;2023-06-22T09:52:36;13.80;;;5.90;;
63965;SDS011;50151;52.030;5.350;2023-06-22T09:55:06;8.65;;;5.35;;
63965;SDS011;50151;52.030;5.350;2023-06-22T09:57:33;6.93;;;5.00;;
63965;SDS011;50151;52.030;5.350;2023-06-22T10:00:00;10.60;;;5.00;;
63965;SDS011;50151;52.030;5.350;2023-06-22T10:02:26;8.98;;;4.90;;
63965;SDS011;50151;52.030;5.350;2023-06-22T10:04:53;8.25;;;4.85;;
63965;SDS011;50151;52.030;5.350;2023-06-22T10:07:21;8.43;;;4.60;;
63965;SDS011;50151;52.030;5.350;2023-06-22T10:09:47;8.48;;;4.32;;
63965;SDS011;50151;52.030;5.350;2023-06-22T10:12:15;9.30;;;4.82;;
63965;SDS011;50151;52.030;5.350;2023-06-22T10:14:42;10.38;;;4.10;;
63965;SDS011;50151;52.030;5.350;2023-06-22T10:17:09;8.65;;;4.43;;
63965;SDS011;50151;52.030;5.350;2023-06-22T10:19:36;7.30;;;4.13;;
63965;SDS011;50151;52.030;5.350;2023-06-22T10:22:04;7.40;;;4.43;;
63965;SDS011;50151;52.030;5.350;2023-06-22T10:24:31;8.25;;;4.50;;
63965;SDS011;50151;52.030;5.350;2023-06-22T10:26:58;6.22;;;4.20;;
63965;SDS011;50151;52.030;5.350;2023-06-22T10:29:25;6.70;;;3.85;;
63965;SDS011;50151;52.030;5.350;2023-06-22T10:31:51;4.47;;;3.42;;
63965;SDS011;50151;52.030;5.350;2023-06-22T10:34:18;8.90;;;4.07;;
63965;SDS011;50151;52.030;5.350;2023-06-22T10:36:45;9.07;;;3.70;;
63965;SDS011;50151;52.030;5.350;2023-06-22T10:39:14;8.73;;;4.00;;
63965;SDS011;50151;52.030;5.350;2023-06-22T10:41:41;5.63;;;3.55;;
63965;SDS011;50151;52.030;5.350;2023-06-22T10:44:08;7.53;;;3.55;;
63965;SDS011;50151;52.030;5.350;2023-06-22T10:46:35;6.85;;;3.83;;
63965;SDS011;50151;52.030;5.350;2023-06-22T10:49:01;6.28;;;3.45;;
63965;SDS011;50151;52.030;5.350;2023-06-22T10:51:28;8.20;;;3.42;;
63965;SDS011;50151;52.030;5.350;2023-06-22T10:53:55;9.15;;;3.80;;
63965;SDS011;50151;52.030;5.350;2023-06-22T10:56:22;7.85;;;3.80;;
63965;SDS011;50151;52.030;5.350;2023-06-22T10:58:49;6.18;;;3.72;;
63965;SDS011;50151;52.030;5.350;2023-06-22T11:01:16;7.97;;;3.90;;
63965;SDS011;50151;52.030;5.350;2023-06-22T11:04:00;10.73;;;3.80;;
63965;SDS011;50151;52.030;5.350;2023-06-22T11:06:27;6.72;;;3.78;;
63965;SDS011;50151;52.030;5.350;2023-06-22T11:08:54;5.60;;;3.25;;
63965;SDS011;50151;52.030;5.350;2023-06-22T11:11:37;8.45;;;3.70;;
63965;SDS011;50151;52.030;5.350;2023-06-22T11:14:04;4.93;;;3.40;;
63965;SDS011;50151;52.030;5.350;2023-06-22T11:16:31;6.38;;;3.30;;
63965;SDS011;50151;52.030;5.350;2023-06-22T11:18:58;14.15;;;4.25;;
63965;SDS011;50151;52.030;5.350;2023-06-22T11:21:25;7.25;;;3.40;;
63965;SDS011;50151;52.030;5.350;2023-06-22T11:23:51;7.93;;;4.00;;
63965;SDS011;50151;52.030;5.350;2023-06-22T11:26:19;7.68;;;3.70;;
63965;SDS011;50151;52.030;5.350;2023-06-22T11:28:47;6.43;;;3.60;;
63965;SDS011;50151;52.030;5.350;2023-06-22T11:31:14;3.67;;;2.95;;
63965;SDS011;50151;52.030;5.350;2023-06-22T11:33:51;4.97;;;3.75;;
63965;SDS011;50151;52.030;5.350;2023-06-22T11:36:18;6.10;;;3.50;;
63965;SDS011;50151;52.030;5.350;2023-06-22T11:38:45;7.47;;;3.85;;
63965;SDS011;50151;52.030;5.350;2023-06-22T11:41:12;5.20;;;3.83;;
63965;SDS011;50151;52.030;5.350;2023-06-22T11:43:38;10.63;;;4.05;;
63965;SDS011;50151;52.030;5.350;2023-06-22T11:46:05;10.40;;;3.58;;
63965;SDS011;50151;52.030;5.350;2023-06-22T11:48:32;4.72;;;3.38;;
63965;SDS011;50151;52.030;5.350;2023-06-22T11:50:59;6.45;;;3.72;;
63965;SDS011;50151;52.030;5.350;2023-06-22T11:53:26;8.05;;;4.05;;
63965;SDS011;50151;52.030;5.350;2023-06-22T11:55:53;6.55;;;4.00;;
63965;SDS011;50151;52.030;5.350;2023-06-22T11:58:21;7.43;;;4.10;;
63965;SDS011;50151;52.030;5.350;2023-06-22T12:00:50;9.63;;;4.35;;
63965;SDS011;50151;52.030;5.350;2023-06-22T12:03:19;10.50;;;4.65;;
63965;SDS011;50151;52.030;5.350;2023-06-22T12:05:49;7.70;;;4.93;;
63965;SDS011;50151;52.030;5.350;2023-06-22T12:08:17;8.30;;;4.53;;
63965;SDS011;50151;52.030;5.350;2023-06-22T12:10:44;6.75;;;5.00;;
63965;SDS011;50151;52.030;5.350;2023-06-22T12:13:11;7.68;;;4.85;;
63965;SDS011;50151;52.030;5.350;2023-06-22T12:15:41;8.38;;;4.60;;
63965;SDS011;50151;52.030;5.350;2023-06-22T12:18:07;8.23;;;4.18;;
63965;SDS011;50151;52.030;5.350;2023-06-22T12:20:35;9.75;;;4.63;;
63965;SDS011;50151;52.030;5.350;2023-06-22T12:23:04;7.85;;;4.90;;
63965;SDS011;50151;52.030;5.350;2023-06-22T12:25:31;8.90;;;4.75;;
63965;SDS011;50151;52.030;5.350;2023-06-22T12:27:58;6.35;;;5.10;;
63965;SDS011;50151;52.030;5.350;2023-06-22T12:30:24;10.38;;;4.97;;
63965;SDS011;50151;52.030;5.350;2023-06-22T12:32:51;11.75;;;4.90;;
63965;SDS011;50151;52.030;5.350;2023-06-22T12:35:21;6.93;;;5.18;;
63965;SDS011;50151;52.030;5.350;2023-06-22T12:37:47;8.52;;;5.22;;
63965;SDS011;50151;52.030;5.350;2023-06-22T12:40:14;8.52;;;5.80;;
63965;SDS011;50151;52.030;5.350;2023-06-22T12:42:44;9.13;;;5.32;;
63965;SDS011;50151;52.030;5.350;2023-06-22T12:45:11;10.70;;;5.28;;
63965;SDS011;50151;52.030;5.350;2023-06-22T12:47:40;10.07;;;5.57;;
63965;SDS011;50151;52.030;5.350;2023-06-22T12:50:07;8.82;;;5.60;;
63965;SDS011;50151;52.030;5.350;2023-06-22T12:52:35;12.27;;;6.10;;
63965;SDS011;50151;52.030;5.350;2023-06-22T12:55:05;9.13;;;5.82;;
63965;SDS011;50151;52.030;5.350;2023-06-22T12:57:33;6.85;;;5.40;;
63965;SDS011;50151;52.030;5.350;2023-06-22T13:00:00;9.65;;;6.32;;
63965;SDS011;50151;52.030;5.350;2023-06-22T13:02:27;13.90;;;6.65;;
63965;SDS011;50151;52.030;5.350;2023-06-22T13:04:54;9.95;;;6.88;;
63965;SDS011;50151;52.030;5.350;2023-06-22T13:07:21;13.50;;;6.85;;
63965;SDS011;50151;52.030;5.350;2023-06-22T13:09:50;14.77;;;7.40;;
63965;SDS011;50151;52.030;5.350;2023-06-22T13:12:22;10.23;;;7.60;;
63965;SDS011;50151;52.030;5.350;2023-06-22T13:14:49;11.63;;;7.78;;
63965;SDS011;50151;52.030;5.350;2023-06-22T13:17:16;11.38;;;7.72;;
63965;SDS011;50151;52.030;5.350;2023-06-22T13:19:43;13.13;;;7.40;;
63965;SDS011;50151;52.030;5.350;2023-06-22T13:22:29;11.73;;;7.78;;
63965;SDS011;50151;52.030;5.350;2023-06-22T13:25:00;9.82;;;7.78;;
63965;SDS011;50151;52.030;5.350;2023-06-22T13:27:27;10.15;;;7.20;;
63965;SDS011;50151;52.030;5.350;2023-06-22T13:29:54;11.52;;;7.50;;
63965;SDS011;50151;52.030;5.350;2023-06-22T13:32:20;11.30;;;7.50;;
63965;SDS011;50151;52.030;5.350;2023-06-22T13:34:47;11.27;;;7.53;;
63965;SDS011;50151;52.030;5.350;2023-06-22T13:37:14;10.93;;;7.22;;
63965;SDS011;50151;52.030;5.350;2023-06-22T13:39:41;11.75;;;7.22;;
63965;SDS011;50151;52.030;5.350;2023-06-22T13:42:08;10.18;;;7.22;;
63965;SDS011;50151;52.030;5.350;2023-06-22T13:44:34;12.35;;;7.60;;
63965;SDS011;50151;52.030;5.350;2023-06-22T13:47:01;14.38;;;7.82;;
63965;SDS011;50151;52.030;5.350;2023-06-22T13:49:28;11.00;;;7.88;;
63965;SDS011;50151;52.030;5.350;2023-06-22T13:51:55;13.05;;;7.75;;
63965;SDS011;50151;52.030;5.350;2023-06-22T13:54:21;10.40;;;7.78;;
63965;SDS011;50151;52.030;5.350;2023-06-22T13:56:51;11.30;;;7.88;;
63965;SDS011;50151;52.030;5.350;2023-06-22T13:59:18;11.60;;;7.93;;
63965;SDS011;50151;52.030;5.350;2023-06-22T14:01:46;11.43;;;8.05;;
63965;SDS011;50151;52.030;5.350;2023-06-22T14:04:12;15.25;;;9.27;;
63965;SDS011;50151;52.030;5.350;2023-06-22T14:06:39;12.27;;;8.73;;
63965;SDS011;50151;52.030;5.350;2023-06-22T14:09:06;11.52;;;8.75;;
63965;SDS011;50151;52.030;5.350;2023-06-22T14:11:33;13.32;;;9.35;;
63965;SDS011;50151;52.030;5.350;2023-06-22T14:14:00;14.32;;;9.25;;
63965;SDS011;50151;52.030;5.350;2023-06-22T14:16:26;14.32;;;9.43;;
63965;SDS011;50151;52.030;5.350;2023-06-22T14:18:53;12.93;;;9.73;;
63965;SDS011;50151;52.030;5.350;2023-06-22T14:21:23;16.85;;;10.38;;
63965;SDS011;50151;52.030;5.350;2023-06-22T14:23:50;14.02;;;10.52;;
63965;SDS011;50151;52.030;5.350;2023-06-22T14:26:17;15.25;;;10.55;;
63965;SDS011;50151;52.030;5.350;2023-06-22T14:28:45;15.45;;;10.00;;
63965;SDS011;50151;52.030;5.350;2023-06-22T14:31:17;12.95;;;10.60;;
63965;SDS011;50151;52.030;5.350;2023-06-22T14:33:46;15.95;;;10.52;;
63965;SDS011;50151;52.030;5.350;2023-06-22T14:36:14;13.30;;;10.38;;
63965;SDS011;50151;52.030;5.350;2023-06-22T14:38:42;16.02;;;11.30;;
63965;SDS011;50151;52.030;5.350;2023-06-22T14:41:09;13.88;;;10.43;;
63965;SDS011;50151;52.030;5.350;2023-06-22T14:43:43;14.38;;;10.68;;